RYR6504 LICT-EGHH
Flight info
| Callsign | RYR6504 |
|---|---|
| Flight time | 2h 37m |
| Altitude | 38000 |
| Route | GIANO DCT RONAB DCT VELEX DCT ABIDU DCT RUGOX DCT MADKA DCT AJO DCT OMEDA DCT MERLU DCT PIGOS DCT BARSO DCT OKTET DCT GIPNO DCT BULOL DCT IDAVO DCT BAGBI DCT SIZZA DCT LAULY DCT BRY DCT CLM DCT KOPOR DCT SOSUN DCT SUBIP M8 ELDAX |
| Aircraft | B38M/M-SADE3FGILRWY/SB1 |
Departure
| Time | 2026-05-06 18:13 |
|---|---|
| Airport | Vincenzo Florio Airport Trapani-Birgi (LICT) |
Arrival
| Time | 2026-05-06 20:50 |
|---|---|
| Airport | Bournemouth Airport (EGHH) |
| Time | Latitude | Longitude | Altitude | Speed | Heading |
|---|---|---|---|---|---|
| 2026-05-06 18:00 | 37.90244 | 12.49659 | 32 ft | 0 kts | 261° |
| 2026-05-06 18:05 | 37.90246 | 12.49673 | 32 ft | 4 kts | 261° |
| 2026-05-06 18:05 | 37.90249 | 12.49704 | 32 ft | 4 kts | 261° |
| 2026-05-06 18:06 | 37.90254 | 12.49738 | 32 ft | 4 kts | 261° |
| 2026-05-06 18:06 | 37.90256 | 12.49759 | 32 ft | 0 kts | 261° |
| 2026-05-06 18:11 | 37.90259 | 12.49741 | 32 ft | 6 kts | 292° |
| 2026-05-06 18:11 | 37.90318 | 12.49737 | 34 ft | 13 kts | 3° |
| 2026-05-06 18:11 | 37.90409 | 12.49677 | 37 ft | 15 kts | 354° |
| 2026-05-06 18:12 | 37.90503 | 12.49732 | 39 ft | 15 kts | 29° |
| 2026-05-06 18:12 | 37.90596 | 12.49683 | 38 ft | 16 kts | 307° |
| 2026-05-06 18:12 | 37.90748 | 12.49435 | 36 ft | 75 kts | 307° |
| 2026-05-06 18:12 | 37.91237 | 12.48629 | 32 ft | 155 kts | 306° |
| 2026-05-06 18:13 | 37.91939 | 12.47370 | 484 ft | 187 kts | 307° |
| 2026-05-06 18:13 | 37.92829 | 12.46171 | 1591 ft | 185 kts | 323° |
| 2026-05-06 18:13 | 37.93942 | 12.45300 | 2358 ft | 197 kts | 340° |
| 2026-05-06 18:13 | 37.95349 | 12.45062 | 2822 ft | 214 kts | 5° |
| 2026-05-06 18:14 | 37.96943 | 12.45137 | 3271 ft | 244 kts | 6° |
| 2026-05-06 18:14 | 37.98675 | 12.45223 | 4016 ft | 257 kts | 6° |
| 2026-05-06 18:14 | 38.00533 | 12.45322 | 4760 ft | 275 kts | 6° |
| 2026-05-06 18:14 | 38.02490 | 12.45428 | 5551 ft | 285 kts | 5° |
| 2026-05-06 18:15 | 38.04493 | 12.45539 | 6498 ft | 291 kts | 5° |
| 2026-05-06 18:15 | 38.06548 | 12.45655 | 7341 ft | 299 kts | 3° |
| 2026-05-06 18:15 | 38.08630 | 12.45772 | 8182 ft | 307 kts | 2° |
| 2026-05-06 18:15 | 38.10796 | 12.45895 | 9048 ft | 314 kts | 2° |
| 2026-05-06 18:16 | 38.13009 | 12.46021 | 9887 ft | 321 kts | 1° |
| 2026-05-06 18:16 | 38.15293 | 12.46152 | 10478 ft | 336 kts | 0° |
| 2026-05-06 18:16 | 38.17661 | 12.46288 | 11024 ft | 351 kts | 0° |
| 2026-05-06 18:16 | 38.20141 | 12.46431 | 11711 ft | 359 kts | 359° |
| 2026-05-06 18:17 | 38.22649 | 12.46576 | 12576 ft | 363 kts | 359° |
| 2026-05-06 18:17 | 38.25196 | 12.46723 | 13387 ft | 368 kts | 358° |
| 2026-05-06 18:17 | 38.27775 | 12.46872 | 14162 ft | 373 kts | 358° |
| 2026-05-06 18:17 | 38.30384 | 12.47024 | 14976 ft | 375 kts | 357° |
| 2026-05-06 18:18 | 38.33002 | 12.47176 | 15834 ft | 376 kts | 357° |
| 2026-05-06 18:18 | 38.35589 | 12.47326 | 16631 ft | 378 kts | 357° |
| 2026-05-06 18:18 | 38.38232 | 12.47480 | 17426 ft | 380 kts | 356° |
| 2026-05-06 18:18 | 38.40883 | 12.47634 | 18213 ft | 382 kts | 356° |
| 2026-05-06 18:19 | 38.43546 | 12.47686 | 18862 ft | 380 kts | 350° |
| 2026-05-06 18:19 | 38.46200 | 12.47478 | 19490 ft | 383 kts | 351° |
| 2026-05-06 18:19 | 38.48873 | 12.47295 | 20107 ft | 386 kts | 351° |
| 2026-05-06 18:19 | 38.51571 | 12.47126 | 20708 ft | 389 kts | 352° |
| 2026-05-06 18:20 | 38.54254 | 12.46968 | 21296 ft | 392 kts | 352° |
| 2026-05-06 18:20 | 38.56995 | 12.46808 | 21895 ft | 395 kts | 352° |
| 2026-05-06 18:20 | 38.59748 | 12.46618 | 22475 ft | 398 kts | 352° |
| 2026-05-06 18:20 | 38.62529 | 12.46426 | 23062 ft | 400 kts | 353° |
| 2026-05-06 18:21 | 38.65321 | 12.46235 | 23623 ft | 403 kts | 353° |
| 2026-05-06 18:21 | 38.68134 | 12.46041 | 24080 ft | 406 kts | 353° |
| 2026-05-06 18:21 | 38.70937 | 12.45849 | 24550 ft | 409 kts | 353° |
| 2026-05-06 18:21 | 38.73785 | 12.45653 | 25023 ft | 411 kts | 353° |
| 2026-05-06 18:22 | 38.76661 | 12.45456 | 25454 ft | 414 kts | 353° |
| 2026-05-06 18:22 | 38.79555 | 12.45257 | 25892 ft | 417 kts | 353° |
| 2026-05-06 18:22 | 38.82475 | 12.45056 | 26317 ft | 420 kts | 353° |
| 2026-05-06 18:22 | 38.85372 | 12.44840 | 26726 ft | 422 kts | 350° |
| 2026-05-06 18:23 | 38.88203 | 12.43953 | 27118 ft | 416 kts | 333° |
| 2026-05-06 18:23 | 38.90878 | 12.42503 | 27470 ft | 420 kts | 334° |
| 2026-05-06 18:23 | 38.93560 | 12.41077 | 27878 ft | 422 kts | 333° |
| 2026-05-06 18:23 | 38.96285 | 12.39604 | 28284 ft | 426 kts | 332° |
| 2026-05-06 18:24 | 38.99035 | 12.38100 | 28598 ft | 430 kts | 332° |
| 2026-05-06 18:24 | 39.01791 | 12.36588 | 29015 ft | 432 kts | 332° |
| 2026-05-06 18:24 | 39.04569 | 12.35059 | 29361 ft | 436 kts | 333° |
| 2026-05-06 18:24 | 39.07365 | 12.33520 | 29734 ft | 438 kts | 333° |
| 2026-05-06 18:25 | 39.10183 | 12.31967 | 30088 ft | 441 kts | 333° |
| 2026-05-06 18:25 | 39.12983 | 12.30422 | 30381 ft | 444 kts | 333° |
| 2026-05-06 18:25 | 39.15835 | 12.28847 | 30717 ft | 446 kts | 332° |
| 2026-05-06 18:25 | 39.18706 | 12.27261 | 31028 ft | 449 kts | 332° |
| 2026-05-06 18:26 | 39.21587 | 12.25667 | 31325 ft | 451 kts | 332° |
| 2026-05-06 18:26 | 39.24443 | 12.24086 | 31613 ft | 453 kts | 332° |
| 2026-05-06 18:26 | 39.27352 | 12.22474 | 31922 ft | 455 kts | 332° |
| 2026-05-06 18:26 | 39.30269 | 12.20856 | 32215 ft | 457 kts | 332° |
| 2026-05-06 18:27 | 39.33200 | 12.19229 | 32510 ft | 460 kts | 332° |
| 2026-05-06 18:27 | 39.36152 | 12.17589 | 32798 ft | 462 kts | 332° |
| 2026-05-06 18:27 | 39.39119 | 12.15939 | 33091 ft | 464 kts | 332° |
| 2026-05-06 18:27 | 39.42094 | 12.14283 | 33372 ft | 467 kts | 332° |
| 2026-05-06 18:28 | 39.45083 | 12.12618 | 33657 ft | 469 kts | 332° |
| 2026-05-06 18:28 | 39.48082 | 12.10945 | 34017 ft | 469 kts | 332° |
| 2026-05-06 18:28 | 39.51046 | 12.09289 | 34356 ft | 468 kts | 332° |
| 2026-05-06 18:28 | 39.54034 | 12.07619 | 34761 ft | 465 kts | 332° |
| 2026-05-06 18:29 | 39.57008 | 12.05956 | 35186 ft | 462 kts | 332° |
| 2026-05-06 18:29 | 39.59958 | 12.04305 | 35602 ft | 459 kts | 332° |
| 2026-05-06 18:29 | 39.62853 | 12.02683 | 36009 ft | 457 kts | 331° |
| 2026-05-06 18:29 | 39.65778 | 12.01043 | 36364 ft | 455 kts | 331° |
| 2026-05-06 18:30 | 39.68676 | 11.99416 | 36724 ft | 453 kts | 330° |
| 2026-05-06 18:30 | 39.71570 | 11.97790 | 37078 ft | 450 kts | 330° |
| 2026-05-06 18:30 | 39.74404 | 11.96196 | 37407 ft | 448 kts | 330° |
| 2026-05-06 18:30 | 39.77260 | 11.94589 | 37731 ft | 446 kts | 330° |
| 2026-05-06 18:31 | 39.80112 | 11.92983 | 38012 ft | 445 kts | 330° |
| 2026-05-06 18:31 | 39.82908 | 11.91271 | 37969 ft | 438 kts | 322° |
| 2026-05-06 18:31 | 39.85220 | 11.88839 | 37953 ft | 419 kts | 306° |
| 2026-05-06 18:31 | 39.86920 | 11.85812 | 38030 ft | 411 kts | 292° |
| 2026-05-06 18:32 | 39.89041 | 11.78978 | 38020 ft | 410 kts | 285° |
| 2026-05-06 18:32 | 39.90788 | 11.71923 | 37997 ft | 408 kts | 283° |
| 2026-05-06 18:33 | 39.92419 | 11.64828 | 38007 ft | 408 kts | 282° |
| 2026-05-06 18:33 | 39.93993 | 11.57798 | 37996 ft | 407 kts | 282° |
| 2026-05-06 18:34 | 39.95575 | 11.50693 | 37996 ft | 407 kts | 282° |
| 2026-05-06 18:34 | 39.96668 | 11.47277 | 37967 ft | 414 kts | 297° |
| 2026-05-06 18:34 | 39.98497 | 11.44337 | 37992 ft | 423 kts | 311° |
| 2026-05-06 18:35 | 40.03004 | 11.39337 | 37991 ft | 429 kts | 314° |
| 2026-05-06 18:35 | 40.07505 | 11.34540 | 37996 ft | 430 kts | 315° |
| 2026-05-06 18:36 | 40.12148 | 11.29658 | 38024 ft | 430 kts | 315° |
| 2026-05-06 18:36 | 40.16807 | 11.24762 | 37983 ft | 429 kts | 315° |
| 2026-05-06 18:37 | 40.20681 | 11.20685 | 37992 ft | 429 kts | 315° |
| 2026-05-06 18:37 | 40.26094 | 11.14977 | 37994 ft | 429 kts | 315° |
| 2026-05-06 18:38 | 40.30745 | 11.10063 | 37984 ft | 429 kts | 315° |
| 2026-05-06 18:38 | 40.35369 | 11.05169 | 37989 ft | 429 kts | 315° |
| 2026-05-06 18:39 | 40.40015 | 11.00242 | 37998 ft | 429 kts | 315° |
| 2026-05-06 18:40 | 40.46212 | 10.93659 | 37983 ft | 430 kts | 314° |
| 2026-05-06 18:40 | 40.50874 | 10.88694 | 37982 ft | 430 kts | 314° |
| 2026-05-06 18:41 | 40.55492 | 10.83767 | 37980 ft | 430 kts | 314° |
| 2026-05-06 18:41 | 40.60141 | 10.78799 | 37977 ft | 430 kts | 314° |
| 2026-05-06 18:42 | 40.64758 | 10.73855 | 37981 ft | 430 kts | 314° |
| 2026-05-06 18:42 | 40.69413 | 10.68863 | 37973 ft | 431 kts | 314° |
| 2026-05-06 18:43 | 40.74068 | 10.63860 | 37972 ft | 431 kts | 314° |
| 2026-05-06 18:43 | 40.78696 | 10.58877 | 37971 ft | 431 kts | 314° |
| 2026-05-06 18:44 | 40.83355 | 10.53850 | 37974 ft | 432 kts | 314° |
| 2026-05-06 18:44 | 40.87995 | 10.48835 | 37986 ft | 433 kts | 314° |
| 2026-05-06 18:45 | 40.92672 | 10.43774 | 37965 ft | 434 kts | 314° |
| 2026-05-06 18:45 | 40.97244 | 10.38653 | 37944 ft | 427 kts | 305° |
| 2026-05-06 18:45 | 40.98881 | 10.35479 | 37945 ft | 411 kts | 289° |
| 2026-05-06 18:46 | 40.99977 | 10.31996 | 37963 ft | 411 kts | 287° |
| 2026-05-06 18:46 | 41.02018 | 10.24921 | 37968 ft | 410 kts | 285° |
| 2026-05-06 18:47 | 41.03929 | 10.17839 | 37977 ft | 410 kts | 284° |
| 2026-05-06 18:47 | 41.05812 | 10.10698 | 37965 ft | 409 kts | 284° |
| 2026-05-06 18:48 | 41.07685 | 10.03552 | 37963 ft | 409 kts | 284° |
| 2026-05-06 18:48 | 41.09539 | 9.96453 | 37962 ft | 409 kts | 284° |
| 2026-05-06 18:49 | 41.11401 | 9.89303 | 37961 ft | 409 kts | 284° |
| 2026-05-06 18:49 | 41.13250 | 9.82183 | 37981 ft | 409 kts | 284° |
| 2026-05-06 18:50 | 41.15103 | 9.75026 | 37979 ft | 409 kts | 284° |
| 2026-05-06 18:50 | 41.16952 | 9.67865 | 37962 ft | 409 kts | 284° |
| 2026-05-06 18:51 | 41.18781 | 9.60759 | 37957 ft | 409 kts | 284° |
| 2026-05-06 18:51 | 41.20620 | 9.53591 | 37961 ft | 409 kts | 284° |
| 2026-05-06 18:52 | 41.22453 | 9.46427 | 37952 ft | 409 kts | 283° |
| 2026-05-06 18:52 | 41.24292 | 9.39309 | 37953 ft | 411 kts | 287° |
| 2026-05-06 18:52 | 41.25726 | 9.35992 | 37934 ft | 421 kts | 303° |
| 2026-05-06 18:53 | 41.27828 | 9.33211 | 37971 ft | 430 kts | 312° |
| 2026-05-06 18:53 | 41.32373 | 9.27959 | 37952 ft | 432 kts | 313° |
| 2026-05-06 18:54 | 41.36970 | 9.22764 | 37956 ft | 433 kts | 313° |
| 2026-05-06 18:54 | 41.41555 | 9.17617 | 37976 ft | 433 kts | 313° |
| 2026-05-06 18:55 | 41.46176 | 9.12423 | 37954 ft | 434 kts | 313° |
| 2026-05-06 18:55 | 41.50796 | 9.07221 | 37948 ft | 434 kts | 313° |
| 2026-05-06 18:56 | 41.55383 | 9.02047 | 37945 ft | 433 kts | 313° |
| 2026-05-06 18:56 | 41.59995 | 8.96835 | 37936 ft | 433 kts | 313° |
| 2026-05-06 18:57 | 41.64600 | 8.91620 | 37972 ft | 433 kts | 313° |
| 2026-05-06 18:57 | 41.69171 | 8.86433 | 37964 ft | 434 kts | 313° |
| 2026-05-06 18:58 | 41.73783 | 8.81191 | 37960 ft | 434 kts | 313° |
| 2026-05-06 18:58 | 41.78642 | 8.76311 | 37959 ft | 444 kts | 326° |
| 2026-05-06 18:59 | 41.84048 | 8.72355 | 37937 ft | 444 kts | 324° |
| 2026-05-06 18:59 | 41.89497 | 8.68341 | 37972 ft | 447 kts | 324° |
| 2026-05-06 19:00 | 41.94933 | 8.64340 | 37965 ft | 447 kts | 324° |
| 2026-05-06 19:00 | 42.00407 | 8.60305 | 37960 ft | 447 kts | 324° |
| 2026-05-06 19:01 | 42.05870 | 8.56271 | 37961 ft | 448 kts | 324° |
| 2026-05-06 19:01 | 42.11302 | 8.52250 | 37966 ft | 448 kts | 324° |
| 2026-05-06 19:02 | 42.16777 | 8.48190 | 37947 ft | 448 kts | 324° |
| 2026-05-06 19:02 | 42.22216 | 8.44148 | 37949 ft | 448 kts | 324° |
| 2026-05-06 19:03 | 42.27690 | 8.40072 | 37946 ft | 448 kts | 324° |
| 2026-05-06 19:03 | 42.33131 | 8.36014 | 37956 ft | 448 kts | 323° |
| 2026-05-06 19:04 | 42.38595 | 8.31930 | 37957 ft | 448 kts | 324° |
| 2026-05-06 19:04 | 42.44024 | 8.27865 | 37945 ft | 448 kts | 323° |
| 2026-05-06 19:05 | 42.49474 | 8.23775 | 37944 ft | 448 kts | 323° |
| 2026-05-06 19:05 | 42.54940 | 8.19665 | 37942 ft | 447 kts | 323° |
| 2026-05-06 19:06 | 42.60363 | 8.15580 | 37940 ft | 447 kts | 323° |
| 2026-05-06 19:06 | 42.65814 | 8.11464 | 37940 ft | 447 kts | 323° |
| 2026-05-06 19:07 | 42.71230 | 8.07368 | 37947 ft | 447 kts | 323° |
| 2026-05-06 19:07 | 42.76682 | 8.03236 | 37956 ft | 447 kts | 323° |
| 2026-05-06 19:08 | 42.82116 | 7.99108 | 37935 ft | 446 kts | 323° |
| 2026-05-06 19:08 | 42.87522 | 7.94994 | 37949 ft | 446 kts | 323° |
| 2026-05-06 19:09 | 42.92935 | 7.90866 | 37930 ft | 445 kts | 323° |
| 2026-05-06 19:09 | 42.98323 | 7.86749 | 37935 ft | 446 kts | 323° |
| 2026-05-06 19:10 | 43.03737 | 7.82604 | 37923 ft | 446 kts | 323° |
| 2026-05-06 19:10 | 43.09159 | 7.78437 | 37914 ft | 446 kts | 323° |
| 2026-05-06 19:11 | 43.14580 | 7.74254 | 37911 ft | 446 kts | 323° |
| 2026-05-06 19:11 | 43.19963 | 7.70092 | 37908 ft | 447 kts | 323° |
| 2026-05-06 19:12 | 43.25400 | 7.65879 | 37902 ft | 448 kts | 323° |
| 2026-05-06 19:12 | 43.30800 | 7.61687 | 37889 ft | 448 kts | 323° |
| 2026-05-06 19:13 | 43.36235 | 7.57460 | 37889 ft | 448 kts | 323° |
| 2026-05-06 19:13 | 43.41665 | 7.53227 | 37885 ft | 449 kts | 323° |
| 2026-05-06 19:14 | 43.47080 | 7.48997 | 37872 ft | 450 kts | 323° |
| 2026-05-06 19:14 | 43.52529 | 7.44731 | 37859 ft | 450 kts | 323° |
| 2026-05-06 19:15 | 43.57981 | 7.40455 | 37856 ft | 450 kts | 323° |
| 2026-05-06 19:15 | 43.63335 | 7.36010 | 37861 ft | 446 kts | 319° |
| 2026-05-06 19:16 | 43.68483 | 7.31251 | 37851 ft | 448 kts | 320° |
| 2026-05-06 19:16 | 43.73690 | 7.26492 | 37863 ft | 448 kts | 320° |
| 2026-05-06 19:17 | 43.78904 | 7.21726 | 37860 ft | 448 kts | 320° |
| 2026-05-06 19:17 | 43.84106 | 7.16960 | 37855 ft | 449 kts | 320° |
| 2026-05-06 19:18 | 43.89292 | 7.12200 | 37860 ft | 449 kts | 320° |
| 2026-05-06 19:18 | 43.94504 | 7.07404 | 37865 ft | 448 kts | 320° |
| 2026-05-06 19:19 | 43.99720 | 7.02595 | 37864 ft | 450 kts | 320° |
| 2026-05-06 19:19 | 44.04932 | 6.97780 | 37904 ft | 450 kts | 320° |
| 2026-05-06 19:20 | 44.10114 | 6.92983 | 37903 ft | 449 kts | 320° |
| 2026-05-06 19:20 | 44.15324 | 6.88138 | 37886 ft | 450 kts | 320° |
| 2026-05-06 19:21 | 44.20533 | 6.83268 | 37919 ft | 450 kts | 320° |
| 2026-05-06 19:21 | 44.25720 | 6.78410 | 37918 ft | 451 kts | 320° |
| 2026-05-06 19:22 | 44.30902 | 6.73546 | 37897 ft | 450 kts | 320° |
| 2026-05-06 19:22 | 44.36106 | 6.68652 | 37916 ft | 450 kts | 320° |
| 2026-05-06 19:23 | 44.41298 | 6.63757 | 37963 ft | 450 kts | 320° |
| 2026-05-06 19:23 | 44.46457 | 6.58884 | 37920 ft | 448 kts | 320° |
| 2026-05-06 19:24 | 44.51635 | 6.53984 | 37966 ft | 450 kts | 320° |
| 2026-05-06 19:24 | 44.56816 | 6.49072 | 37941 ft | 449 kts | 320° |
| 2026-05-06 19:25 | 44.61964 | 6.44181 | 37955 ft | 449 kts | 320° |
| 2026-05-06 19:25 | 44.67135 | 6.39257 | 37961 ft | 448 kts | 320° |
| 2026-05-06 19:26 | 44.72305 | 6.34322 | 37940 ft | 448 kts | 320° |
| 2026-05-06 19:26 | 44.77463 | 6.29389 | 37963 ft | 448 kts | 320° |
| 2026-05-06 19:27 | 44.82625 | 6.24441 | 37903 ft | 447 kts | 320° |
| 2026-05-06 19:27 | 44.87787 | 6.19483 | 37962 ft | 450 kts | 320° |
| 2026-05-06 19:28 | 44.92080 | 6.15350 | 37962 ft | 448 kts | 320° |
| 2026-05-06 19:28 | 44.97249 | 6.10365 | 37950 ft | 449 kts | 320° |
| 2026-05-06 19:29 | 45.02385 | 6.05399 | 37969 ft | 451 kts | 321° |
| 2026-05-06 19:29 | 45.07571 | 6.00374 | 38010 ft | 452 kts | 321° |
| 2026-05-06 19:30 | 45.12765 | 5.95331 | 37908 ft | 450 kts | 321° |
| 2026-05-06 19:30 | 45.17938 | 5.90296 | 37964 ft | 452 kts | 321° |
| 2026-05-06 19:31 | 45.23092 | 5.85269 | 37949 ft | 451 kts | 320° |
| 2026-05-06 19:31 | 45.30856 | 5.77675 | 37962 ft | 451 kts | 321° |
| 2026-05-06 19:32 | 45.35987 | 5.72642 | 37929 ft | 450 kts | 321° |
| 2026-05-06 19:32 | 45.41149 | 5.67567 | 37935 ft | 451 kts | 321° |
| 2026-05-06 19:33 | 45.46317 | 5.62476 | 37948 ft | 451 kts | 321° |
| 2026-05-06 19:33 | 45.51450 | 5.57409 | 37942 ft | 451 kts | 321° |
| 2026-05-06 19:34 | 45.56668 | 5.52383 | 37937 ft | 453 kts | 324° |
| 2026-05-06 19:34 | 45.62038 | 5.47633 | 37936 ft | 453 kts | 324° |
| 2026-05-06 19:35 | 45.67349 | 5.42875 | 37944 ft | 453 kts | 324° |
| 2026-05-06 19:35 | 45.72695 | 5.38071 | 37944 ft | 453 kts | 324° |
| 2026-05-06 19:36 | 45.78052 | 5.33245 | 37939 ft | 453 kts | 324° |
| 2026-05-06 19:36 | 45.83361 | 5.28451 | 37958 ft | 453 kts | 324° |
| 2026-05-06 19:37 | 45.88708 | 5.23612 | 37961 ft | 454 kts | 324° |
| 2026-05-06 19:37 | 45.94043 | 5.18773 | 37951 ft | 454 kts | 324° |
| 2026-05-06 19:38 | 45.99356 | 5.13943 | 37962 ft | 454 kts | 324° |
| 2026-05-06 19:38 | 46.04719 | 5.09150 | 37937 ft | 454 kts | 330° |
| 2026-05-06 19:39 | 46.10521 | 5.05423 | 37934 ft | 456 kts | 333° |
| 2026-05-06 19:39 | 46.16291 | 5.01743 | 37935 ft | 456 kts | 333° |
| 2026-05-06 19:40 | 46.22111 | 4.98030 | 37933 ft | 456 kts | 333° |
| 2026-05-06 19:40 | 46.27930 | 4.94308 | 37942 ft | 456 kts | 333° |
| 2026-05-06 19:41 | 46.33744 | 4.90580 | 37940 ft | 457 kts | 333° |
| 2026-05-06 19:41 | 46.39528 | 4.86863 | 37935 ft | 457 kts | 333° |
| 2026-05-06 19:42 | 46.45326 | 4.83129 | 37934 ft | 457 kts | 333° |
| 2026-05-06 19:42 | 46.51129 | 4.79383 | 37935 ft | 455 kts | 334° |
| 2026-05-06 19:43 | 46.56939 | 4.75623 | 37933 ft | 455 kts | 334° |
| 2026-05-06 19:43 | 46.62702 | 4.71884 | 37933 ft | 455 kts | 334° |
| 2026-05-06 19:44 | 46.68500 | 4.68114 | 37936 ft | 455 kts | 334° |
| 2026-05-06 19:44 | 46.74259 | 4.64362 | 37939 ft | 456 kts | 334° |
| 2026-05-06 19:45 | 46.80052 | 4.60579 | 37938 ft | 455 kts | 334° |
| 2026-05-06 19:45 | 46.85852 | 4.56814 | 37941 ft | 455 kts | 334° |
| 2026-05-06 19:46 | 46.91651 | 4.53042 | 37939 ft | 455 kts | 334° |
| 2026-05-06 19:46 | 46.97450 | 4.49262 | 37952 ft | 455 kts | 334° |
| 2026-05-06 19:47 | 47.03189 | 4.45510 | 37940 ft | 453 kts | 334° |
| 2026-05-06 19:47 | 47.08962 | 4.41728 | 37947 ft | 453 kts | 334° |
| 2026-05-06 19:48 | 47.14696 | 4.37962 | 37949 ft | 453 kts | 334° |
| 2026-05-06 19:48 | 47.20466 | 4.34164 | 37944 ft | 453 kts | 334° |
| 2026-05-06 19:49 | 47.26222 | 4.30366 | 37950 ft | 453 kts | 334° |
| 2026-05-06 19:49 | 47.31982 | 4.26556 | 37961 ft | 453 kts | 334° |
| 2026-05-06 19:50 | 47.37710 | 4.22758 | 37956 ft | 454 kts | 334° |
| 2026-05-06 19:50 | 47.43482 | 4.18922 | 37955 ft | 454 kts | 334° |
| 2026-05-06 19:51 | 47.49205 | 4.15111 | 37959 ft | 453 kts | 334° |
| 2026-05-06 19:51 | 47.54966 | 4.11266 | 37953 ft | 453 kts | 334° |
| 2026-05-06 19:52 | 47.60729 | 4.07418 | 37949 ft | 453 kts | 334° |
| 2026-05-06 19:52 | 47.66451 | 4.03588 | 37960 ft | 453 kts | 334° |
| 2026-05-06 19:53 | 47.72209 | 3.99724 | 37956 ft | 453 kts | 334° |
| 2026-05-06 19:53 | 47.77932 | 3.95875 | 37955 ft | 454 kts | 334° |
| 2026-05-06 19:54 | 47.83689 | 3.91994 | 37957 ft | 453 kts | 334° |
| 2026-05-06 19:54 | 47.89438 | 3.88108 | 37956 ft | 453 kts | 334° |
| 2026-05-06 19:55 | 47.95184 | 3.84215 | 37958 ft | 453 kts | 334° |
| 2026-05-06 19:55 | 48.00900 | 3.80333 | 37944 ft | 453 kts | 334° |
| 2026-05-06 19:56 | 48.06649 | 3.76419 | 37938 ft | 454 kts | 334° |
| 2026-05-06 19:56 | 48.12398 | 3.72496 | 37955 ft | 454 kts | 334° |
| 2026-05-06 19:57 | 48.15170 | 3.70276 | 37929 ft | 450 kts | 321° |
| 2026-05-06 19:57 | 48.17459 | 3.67125 | 37958 ft | 446 kts | 311° |
| 2026-05-06 19:57 | 48.21773 | 3.60340 | 37943 ft | 449 kts | 311° |
| 2026-05-06 19:58 | 48.26018 | 3.53498 | 37943 ft | 449 kts | 311° |
| 2026-05-06 19:58 | 48.30234 | 3.46627 | 37946 ft | 449 kts | 311° |
| 2026-05-06 19:59 | 48.34468 | 3.39703 | 37949 ft | 449 kts | 311° |
| 2026-05-06 19:59 | 48.38699 | 3.32771 | 37943 ft | 449 kts | 312° |
| 2026-05-06 20:00 | 48.41072 | 3.29722 | 37921 ft | 449 kts | 328° |
| 2026-05-06 20:00 | 48.43843 | 3.27670 | 37962 ft | 450 kts | 335° |
| 2026-05-06 20:00 | 48.49612 | 3.23839 | 37945 ft | 452 kts | 335° |
| 2026-05-06 20:01 | 48.55413 | 3.20095 | 37946 ft | 453 kts | 335° |
| 2026-05-06 20:01 | 48.61179 | 3.16398 | 37945 ft | 452 kts | 335° |
| 2026-05-06 20:02 | 48.66984 | 3.12670 | 37948 ft | 452 kts | 335° |
| 2026-05-06 20:02 | 48.72778 | 3.08939 | 37943 ft | 452 kts | 335° |
| 2026-05-06 20:03 | 48.78538 | 3.05221 | 37956 ft | 452 kts | 335° |
| 2026-05-06 20:03 | 48.84307 | 3.01439 | 37943 ft | 449 kts | 331° |
| 2026-05-06 20:04 | 48.89747 | 2.96767 | 37952 ft | 449 kts | 329° |
| 2026-05-06 20:04 | 48.95167 | 2.92039 | 37944 ft | 449 kts | 329° |
| 2026-05-06 20:05 | 49.00560 | 2.87313 | 37951 ft | 449 kts | 329° |
| 2026-05-06 20:05 | 49.05966 | 2.82562 | 37953 ft | 449 kts | 329° |
| 2026-05-06 20:06 | 49.11390 | 2.77784 | 37960 ft | 449 kts | 329° |
| 2026-05-06 20:06 | 49.16767 | 2.73036 | 37958 ft | 449 kts | 328° |
| 2026-05-06 20:07 | 49.22174 | 2.68247 | 37952 ft | 448 kts | 328° |
| 2026-05-06 20:07 | 49.27589 | 2.63441 | 37961 ft | 447 kts | 328° |
| 2026-05-06 20:08 | 49.32968 | 2.58655 | 37957 ft | 446 kts | 328° |
| 2026-05-06 20:08 | 49.38312 | 2.53886 | 37967 ft | 447 kts | 328° |
| 2026-05-06 20:09 | 49.43689 | 2.49076 | 37975 ft | 447 kts | 328° |
| 2026-05-06 20:09 | 49.49070 | 2.44252 | 37982 ft | 447 kts | 328° |
| 2026-05-06 20:10 | 49.51554 | 2.41424 | 37956 ft | 443 kts | 313° |
| 2026-05-06 20:10 | 49.53526 | 2.37881 | 38004 ft | 442 kts | 309° |
| 2026-05-06 20:10 | 49.57491 | 2.30599 | 37987 ft | 443 kts | 308° |
| 2026-05-06 20:11 | 49.61398 | 2.23230 | 37990 ft | 443 kts | 308° |
| 2026-05-06 20:11 | 49.65273 | 2.15859 | 37987 ft | 441 kts | 308° |
| 2026-05-06 20:12 | 49.69112 | 2.08530 | 37982 ft | 441 kts | 308° |
| 2026-05-06 20:12 | 49.72976 | 2.01135 | 37985 ft | 442 kts | 308° |
| 2026-05-06 20:13 | 49.76834 | 1.93727 | 37982 ft | 443 kts | 308° |
| 2026-05-06 20:13 | 49.80044 | 1.87550 | 37980 ft | 443 kts | 308° |
| 2026-05-06 20:14 | 49.84533 | 1.78887 | 37982 ft | 442 kts | 308° |
| 2026-05-06 20:14 | 49.87739 | 1.72680 | 37981 ft | 442 kts | 308° |
| 2026-05-06 20:15 | 49.91585 | 1.65218 | 37983 ft | 442 kts | 308° |
| 2026-05-06 20:15 | 49.94089 | 1.60348 | 37785 ft | 428 kts | 308° |
| 2026-05-06 20:15 | 49.95313 | 1.57966 | 37463 ft | 424 kts | 308° |
| 2026-05-06 20:16 | 49.97152 | 1.54382 | 36870 ft | 423 kts | 308° |
| 2026-05-06 20:16 | 49.99088 | 1.50917 | 36214 ft | 424 kts | 317° |
| 2026-05-06 20:16 | 50.01335 | 1.47919 | 35637 ft | 422 kts | 319° |
| 2026-05-06 20:16 | 50.03512 | 1.44959 | 35190 ft | 418 kts | 319° |
| 2026-05-06 20:17 | 50.05705 | 1.41975 | 34749 ft | 414 kts | 319° |
| 2026-05-06 20:17 | 50.07867 | 1.39030 | 34272 ft | 412 kts | 319° |
| 2026-05-06 20:17 | 50.10022 | 1.36093 | 33729 ft | 410 kts | 319° |
| 2026-05-06 20:17 | 50.12168 | 1.33163 | 33172 ft | 408 kts | 319° |
| 2026-05-06 20:18 | 50.14263 | 1.30301 | 32702 ft | 404 kts | 318° |
| 2026-05-06 20:18 | 50.16367 | 1.27421 | 32260 ft | 399 kts | 318° |
| 2026-05-06 20:18 | 50.18441 | 1.24581 | 31813 ft | 395 kts | 318° |
| 2026-05-06 20:18 | 50.20504 | 1.21752 | 31368 ft | 392 kts | 317° |
| 2026-05-06 20:19 | 50.22548 | 1.18947 | 30923 ft | 389 kts | 317° |
| 2026-05-06 20:19 | 50.24576 | 1.16160 | 30489 ft | 386 kts | 317° |
| 2026-05-06 20:19 | 50.26590 | 1.13388 | 30058 ft | 383 kts | 317° |
| 2026-05-06 20:19 | 50.28561 | 1.10673 | 29573 ft | 380 kts | 317° |
| 2026-05-06 20:20 | 50.30538 | 1.07947 | 29146 ft | 376 kts | 317° |
| 2026-05-06 20:20 | 50.32492 | 1.05248 | 28738 ft | 372 kts | 317° |
| 2026-05-06 20:20 | 50.34422 | 1.02580 | 28346 ft | 368 kts | 317° |
| 2026-05-06 20:20 | 50.36336 | 0.99931 | 27944 ft | 365 kts | 317° |
| 2026-05-06 20:21 | 50.38228 | 0.97313 | 27555 ft | 361 kts | 317° |
| 2026-05-06 20:21 | 50.40107 | 0.94705 | 27171 ft | 358 kts | 317° |
| 2026-05-06 20:21 | 50.41965 | 0.92126 | 26801 ft | 355 kts | 317° |
| 2026-05-06 20:21 | 50.43719 | 0.89501 | 26393 ft | 352 kts | 307° |
| 2026-05-06 20:22 | 50.44889 | 0.86164 | 25961 ft | 348 kts | 288° |
| 2026-05-06 20:22 | 50.45606 | 0.82560 | 25708 ft | 342 kts | 287° |
| 2026-05-06 20:22 | 50.46312 | 0.79046 | 25482 ft | 335 kts | 287° |
| 2026-05-06 20:22 | 50.46991 | 0.75572 | 25193 ft | 331 kts | 286° |
| 2026-05-06 20:23 | 50.47654 | 0.72122 | 24858 ft | 328 kts | 286° |
| 2026-05-06 20:23 | 50.48296 | 0.68736 | 24517 ft | 326 kts | 286° |
| 2026-05-06 20:23 | 50.48888 | 0.65305 | 24138 ft | 325 kts | 278° |
| 2026-05-06 20:23 | 50.49164 | 0.61783 | 23765 ft | 324 kts | 277° |
| 2026-05-06 20:24 | 50.49469 | 0.58275 | 23403 ft | 322 kts | 277° |
| 2026-05-06 20:24 | 50.49785 | 0.54800 | 23014 ft | 320 kts | 278° |
| 2026-05-06 20:24 | 50.50106 | 0.51353 | 22662 ft | 317 kts | 278° |
| 2026-05-06 20:24 | 50.50427 | 0.47939 | 22324 ft | 314 kts | 278° |
| 2026-05-06 20:25 | 50.50747 | 0.44560 | 21987 ft | 311 kts | 278° |
| 2026-05-06 20:25 | 50.51060 | 0.41253 | 21665 ft | 308 kts | 278° |
| 2026-05-06 20:25 | 50.51375 | 0.37926 | 21344 ft | 310 kts | 278° |
| 2026-05-06 20:25 | 50.51693 | 0.34550 | 21016 ft | 314 kts | 278° |
| 2026-05-06 20:26 | 50.52014 | 0.31137 | 20683 ft | 316 kts | 278° |
| 2026-05-06 20:26 | 50.52335 | 0.27715 | 20349 ft | 315 kts | 278° |
| 2026-05-06 20:26 | 50.52650 | 0.24344 | 20018 ft | 313 kts | 278° |
| 2026-05-06 20:26 | 50.52964 | 0.20967 | 19688 ft | 311 kts | 278° |
| 2026-05-06 20:27 | 50.53276 | 0.17611 | 19362 ft | 308 kts | 278° |
| 2026-05-06 20:27 | 50.53583 | 0.14284 | 19042 ft | 306 kts | 278° |
| 2026-05-06 20:27 | 50.53889 | 0.10967 | 18719 ft | 304 kts | 278° |
| 2026-05-06 20:27 | 50.54191 | 0.07688 | 18400 ft | 302 kts | 278° |
| 2026-05-06 20:28 | 50.54486 | 0.04465 | 18058 ft | 300 kts | 278° |
| 2026-05-06 20:28 | 50.55016 | 0.01376 | 18009 ft | 287 kts | 294° |
| 2026-05-06 20:28 | 50.55909 | -0.01393 | 17951 ft | 285 kts | 296° |
| 2026-05-06 20:28 | 50.56811 | -0.04251 | 17857 ft | 296 kts | 296° |
| 2026-05-06 20:29 | 50.57736 | -0.07227 | 17785 ft | 301 kts | 295° |
| 2026-05-06 20:29 | 50.58641 | -0.10165 | 17716 ft | 303 kts | 295° |
| 2026-05-06 20:29 | 50.59645 | -0.13077 | 17633 ft | 303 kts | 305° |
| 2026-05-06 20:29 | 50.60802 | -0.15847 | 17560 ft | 302 kts | 293° |
| 2026-05-06 20:30 | 50.61549 | -0.18925 | 17502 ft | 302 kts | 292° |
| 2026-05-06 20:30 | 50.63234 | -0.24989 | 17365 ft | 302 kts | 294° |
| 2026-05-06 20:30 | 50.64112 | -0.27999 | 17309 ft | 301 kts | 294° |
| 2026-05-06 20:31 | 50.64997 | -0.30993 | 17277 ft | 313 kts | 295° |
| 2026-05-06 20:31 | 50.65946 | -0.34176 | 17312 ft | 330 kts | 295° |
| 2026-05-06 20:31 | 50.66948 | -0.37520 | 17400 ft | 342 kts | 295° |
| 2026-05-06 20:31 | 50.67977 | -0.40952 | 17531 ft | 349 kts | 295° |
| 2026-05-06 20:32 | 50.69007 | -0.44387 | 17481 ft | 340 kts | 295° |
| 2026-05-06 20:32 | 50.69998 | -0.47696 | 17387 ft | 328 kts | 295° |
| 2026-05-06 20:32 | 50.70964 | -0.50924 | 17125 ft | 322 kts | 295° |
| 2026-05-06 20:32 | 50.71913 | -0.54103 | 16810 ft | 318 kts | 295° |
| 2026-05-06 20:33 | 50.72851 | -0.57244 | 16428 ft | 316 kts | 295° |
| 2026-05-06 20:33 | 50.73785 | -0.60377 | 16024 ft | 315 kts | 295° |
| 2026-05-06 20:33 | 50.74703 | -0.63465 | 15635 ft | 314 kts | 295° |
| 2026-05-06 20:33 | 50.75510 | -0.66671 | 15220 ft | 314 kts | 283° |
| 2026-05-06 20:34 | 50.75831 | -0.70074 | 14852 ft | 313 kts | 276° |
| 2026-05-06 20:34 | 50.76035 | -0.73487 | 14471 ft | 312 kts | 276° |
| 2026-05-06 20:34 | 50.76230 | -0.76902 | 14092 ft | 311 kts | 276° |
| 2026-05-06 20:34 | 50.76423 | -0.80311 | 13710 ft | 311 kts | 276° |
| 2026-05-06 20:35 | 50.76615 | -0.83711 | 13288 ft | 310 kts | 276° |
| 2026-05-06 20:35 | 50.76801 | -0.87058 | 12883 ft | 309 kts | 276° |
| 2026-05-06 20:35 | 50.76987 | -0.90444 | 12473 ft | 309 kts | 276° |
| 2026-05-06 20:35 | 50.77172 | -0.93819 | 12070 ft | 308 kts | 276° |
| 2026-05-06 20:36 | 50.77349 | -0.97193 | 11672 ft | 308 kts | 276° |
| 2026-05-06 20:36 | 50.77518 | -1.00561 | 11277 ft | 307 kts | 276° |
| 2026-05-06 20:36 | 50.77690 | -1.03921 | 10889 ft | 306 kts | 276° |
| 2026-05-06 20:36 | 50.77857 | -1.07255 | 10497 ft | 302 kts | 275° |
| 2026-05-06 20:37 | 50.78019 | -1.10520 | 10118 ft | 294 kts | 275° |
| 2026-05-06 20:37 | 50.78182 | -1.13694 | 9772 ft | 283 kts | 276° |
| 2026-05-06 20:37 | 50.78333 | -1.16756 | 9401 ft | 276 kts | 275° |
| 2026-05-06 20:37 | 50.78473 | -1.19744 | 9034 ft | 270 kts | 275° |
| 2026-05-06 20:38 | 50.78612 | -1.22688 | 8672 ft | 266 kts | 275° |
| 2026-05-06 20:38 | 50.78747 | -1.25559 | 8319 ft | 264 kts | 275° |
| 2026-05-06 20:38 | 50.78882 | -1.28441 | 7969 ft | 261 kts | 275° |
| 2026-05-06 20:38 | 50.79017 | -1.31301 | 7634 ft | 261 kts | 276° |
| 2026-05-06 20:39 | 50.79151 | -1.34160 | 7325 ft | 260 kts | 275° |
| 2026-05-06 20:39 | 50.79284 | -1.37000 | 7092 ft | 258 kts | 275° |
| 2026-05-06 20:39 | 50.79416 | -1.39807 | 7020 ft | 255 kts | 275° |
| 2026-05-06 20:39 | 50.79547 | -1.42608 | 7015 ft | 255 kts | 275° |
| 2026-05-06 20:40 | 50.79677 | -1.45405 | 7014 ft | 255 kts | 275° |
| 2026-05-06 20:40 | 50.79484 | -1.48194 | 6996 ft | 257 kts | 254° |
| 2026-05-06 20:40 | 50.78783 | -1.50771 | 7023 ft | 259 kts | 246° |
| 2026-05-06 20:40 | 50.77980 | -1.53328 | 7011 ft | 258 kts | 245° |
| 2026-05-06 20:41 | 50.77188 | -1.55833 | 7010 ft | 251 kts | 245° |
| 2026-05-06 20:41 | 50.76408 | -1.58285 | 7013 ft | 249 kts | 245° |
| 2026-05-06 20:41 | 50.75686 | -1.60775 | 7011 ft | 248 kts | 252° |
| 2026-05-06 20:41 | 50.75160 | -1.63368 | 6981 ft | 248 kts | 255° |
| 2026-05-06 20:42 | 50.74671 | -1.65948 | 6761 ft | 248 kts | 255° |
| 2026-05-06 20:42 | 50.74178 | -1.68554 | 6494 ft | 246 kts | 255° |
| 2026-05-06 20:42 | 50.73688 | -1.71122 | 6232 ft | 241 kts | 255° |
| 2026-05-06 20:42 | 50.73210 | -1.73630 | 5974 ft | 236 kts | 255° |
| 2026-05-06 20:43 | 50.72743 | -1.76097 | 5711 ft | 234 kts | 255° |
| 2026-05-06 20:43 | 50.72281 | -1.78554 | 5455 ft | 233 kts | 255° |
| 2026-05-06 20:43 | 50.71823 | -1.80995 | 5198 ft | 230 kts | 255° |
| 2026-05-06 20:43 | 50.71378 | -1.83393 | 4940 ft | 225 kts | 255° |
| 2026-05-06 20:44 | 50.70943 | -1.85748 | 4672 ft | 221 kts | 255° |
| 2026-05-06 20:44 | 50.70543 | -1.88040 | 4372 ft | 217 kts | 258° |
| 2026-05-06 20:44 | 50.70258 | -1.90362 | 4097 ft | 214 kts | 260° |
| 2026-05-06 20:44 | 50.69995 | -1.92667 | 3836 ft | 213 kts | 260° |
| 2026-05-06 20:45 | 50.69736 | -1.94955 | 3572 ft | 210 kts | 260° |
| 2026-05-06 20:45 | 50.69478 | -1.97219 | 3306 ft | 209 kts | 260° |
| 2026-05-06 20:45 | 50.69222 | -1.99474 | 3046 ft | 208 kts | 260° |
| 2026-05-06 20:45 | 50.69140 | -2.01742 | 2767 ft | 206 kts | 282° |
| 2026-05-06 20:46 | 50.69682 | -2.03733 | 2575 ft | 196 kts | 310° |
| 2026-05-06 20:46 | 50.70744 | -2.05031 | 2486 ft | 193 kts | 340° |
| 2026-05-06 20:46 | 50.72040 | -2.05327 | 2452 ft | 186 kts | 9° |
| 2026-05-06 20:46 | 50.73207 | -2.04606 | 2365 ft | 179 kts | 35° |
| 2026-05-06 20:47 | 50.74177 | -2.03429 | 2239 ft | 173 kts | 40° |
| 2026-05-06 20:47 | 50.74933 | -2.02011 | 2128 ft | 167 kts | 60° |
| 2026-05-06 20:47 | 50.75354 | -2.00371 | 1950 ft | 160 kts | 73° |
| 2026-05-06 20:47 | 50.75620 | -1.98684 | 1767 ft | 156 kts | 75° |
| 2026-05-06 20:48 | 50.75879 | -1.97065 | 1592 ft | 145 kts | 75° |
| 2026-05-06 20:48 | 50.76128 | -1.95555 | 1395 ft | 139 kts | 75° |
| 2026-05-06 20:48 | 50.76371 | -1.94088 | 1212 ft | 138 kts | 74° |
| 2026-05-06 20:48 | 50.76612 | -1.92635 | 1033 ft | 141 kts | 74° |
| 2026-05-06 20:49 | 50.76840 | -1.91162 | 838 ft | 139 kts | 75° |
| 2026-05-06 20:49 | 50.77094 | -1.89688 | 660 ft | 137 kts | 73° |
| 2026-05-06 20:49 | 50.77332 | -1.88249 | 462 ft | 136 kts | 75° |
| 2026-05-06 20:49 | 50.77581 | -1.86782 | 300 ft | 137 kts | 72° |
| 2026-05-06 20:50 | 50.77820 | -1.85353 | 112 ft | 133 kts | 73° |
| 2026-05-06 20:50 | 50.78043 | -1.84025 | 44 ft | 107 kts | 75° |
| 2026-05-06 20:50 | 50.78174 | -1.83257 | 46 ft | 32 kts | 76° |
| 2026-05-06 20:50 | 50.78185 | -1.83065 | 44 ft | 7 kts | 136° |
| 2026-05-06 20:51 | 50.78169 | -1.83055 | 47 ft | 0 kts | 169° |
| 2026-05-06 20:51 | 50.78154 | -1.83060 | 47 ft | 8 kts | 204° |
| 2026-05-06 20:52 | 50.78085 | -1.83183 | 48 ft | 18 kts | 235° |
| 2026-05-06 20:52 | 50.78020 | -1.83364 | 48 ft | 17 kts | 244° |
| 2026-05-06 20:52 | 50.77947 | -1.83490 | 47 ft | 13 kts | 184° |
| 2026-05-06 20:52 | 50.77922 | -1.83409 | 48 ft | 6 kts | 88° |
| 2026-05-06 20:53 | 50.77923 | -1.83380 | 49 ft | 0 kts | 88° |
| 2026-05-06 20:53 | 50.77923 | -1.83379 | 48 ft | 0 kts | 81° |